createdAt,value
2022-12-23T00:01:52.845Z,8.62
2022-12-23T00:06:55.682Z,8.64
2022-12-23T00:12:17.211Z,8.62
2022-12-23T00:17:23.431Z,8.63
2022-12-23T00:22:46.115Z,8.63
2022-12-23T00:28:01.323Z,8.62
2022-12-23T00:33:04.317Z,8.63
2022-12-23T00:38:07.093Z,8.68
2022-12-23T00:43:11.233Z,8.66
2022-12-23T00:48:31.900Z,8.67
2022-12-23T00:53:34.678Z,8.70
2022-12-23T00:58:38.821Z,8.71
2022-12-23T01:03:58.884Z,8.74
2022-12-23T01:09:01.636Z,8.75
2022-12-23T01:14:05.879Z,8.75
2022-12-23T01:19:08.839Z,8.76
2022-12-23T01:24:11.594Z,8.76
2022-12-23T01:29:15.779Z,8.77
2022-12-23T01:34:18.820Z,8.80
2022-12-23T01:39:21.645Z,8.78
2022-12-23T01:44:51.857Z,8.76
2022-12-23T01:49:58.080Z,8.78
2022-12-23T01:55:00.838Z,8.77
2022-12-23T02:00:23.328Z,8.83
2022-12-23T02:05:26.164Z,8.80
2022-12-23T02:10:35.400Z,8.78
2022-12-23T02:16:01.001Z,8.81
2022-12-23T02:21:28.709Z,8.75
2022-12-23T02:26:58.770Z,8.77
2022-12-23T02:32:08.940Z,8.78
2022-12-23T02:37:20.035Z,8.78
2022-12-23T02:42:25.292Z,8.77
2022-12-23T02:47:33.333Z,8.79
2022-12-23T02:52:37.597Z,8.79
2022-12-23T02:57:43.237Z,8.78
2022-12-23T03:02:47.814Z,8.79
2022-12-23T03:07:51.625Z,8.83
2022-12-23T03:12:59.280Z,8.81
2022-12-23T03:18:06.713Z,8.85
2022-12-23T03:23:13.674Z,8.87
2022-12-23T03:28:20.458Z,8.91
2022-12-23T03:33:28.616Z,8.92
2022-12-23T03:38:34.188Z,8.91
2022-12-23T03:43:40.521Z,8.89
2022-12-23T03:48:50.734Z,8.95
2022-12-23T03:53:57.443Z,8.96
2022-12-23T03:59:02.771Z,8.97
2022-12-23T04:04:11.601Z,8.97
2022-12-23T04:09:21.710Z,9.01
2022-12-23T04:14:25.135Z,9.00
2022-12-23T04:19:29.813Z,9.00
2022-12-23T04:24:32.576Z,9.01
2022-12-23T04:29:35.733Z,9.02
2022-12-23T04:34:39.789Z,9.04
2022-12-23T04:39:42.645Z,9.00
2022-12-23T04:44:45.467Z,9.00
2022-12-23T04:49:49.705Z,9.02
2022-12-23T04:54:52.519Z,9.03
2022-12-23T04:59:55.257Z,9.03
2022-12-23T05:04:59.446Z,9.00
2022-12-23T05:10:02.454Z,9.04
2022-12-23T05:15:05.879Z,9.02
2022-12-23T05:20:12.599Z,9.00
2022-12-23T05:25:15.555Z,8.98
2022-12-23T05:30:18.426Z,8.99
2022-12-23T05:35:23.110Z,9.01
2022-12-23T05:40:28.761Z,8.94
2022-12-23T05:45:36.348Z,8.98
2022-12-23T05:50:40.912Z,8.99
2022-12-23T05:55:43.786Z,8.96
2022-12-23T06:00:46.514Z,8.96
2022-12-23T06:05:52.689Z,8.96
2022-12-23T06:10:55.502Z,8.94
2022-12-23T06:15:58.258Z,8.96
2022-12-23T06:21:02.339Z,8.93
2022-12-23T06:26:05.560Z,8.91
2022-12-23T06:31:08.413Z,8.93
2022-12-23T06:36:12.585Z,8.90
2022-12-23T06:41:15.317Z,8.90
2022-12-23T06:46:20.277Z,8.92
2022-12-23T06:51:24.594Z,8.88
2022-12-23T06:56:29.990Z,8.86
2022-12-23T07:01:33.081Z,8.87
2022-12-23T07:06:37.706Z,8.89
2022-12-23T07:11:40.510Z,8.88
2022-12-23T07:16:43.337Z,8.93
2022-12-23T07:21:47.445Z,8.88
2022-12-23T07:26:50.177Z,8.88
2022-12-23T07:31:53.658Z,8.87
2022-12-23T07:36:57.911Z,8.81
2022-12-23T07:42:33.955Z,8.82
2022-12-23T07:47:23.486Z,8.80
2022-12-23T07:52:27.597Z,8.82
2022-12-23T07:57:30.451Z,8.81
2022-12-23T08:02:33.336Z,8.78
2022-12-23T08:07:37.604Z,8.81
2022-12-23T08:12:40.331Z,8.82
2022-12-23T08:17:43.076Z,8.83
2022-12-23T08:22:47.223Z,8.87
2022-12-23T08:27:50.114Z,8.85
2022-12-23T08:32:52.840Z,8.86
2022-12-23T08:37:56.974Z,8.91
2022-12-23T08:42:59.699Z,8.90
2022-12-23T08:48:02.404Z,8.86
2022-12-23T08:53:06.536Z,8.84
2022-12-23T08:58:09.567Z,8.84
2022-12-23T09:03:12.353Z,8.87
2022-12-23T09:08:16.522Z,8.94
2022-12-23T09:13:27.755Z,8.87
2022-12-23T09:18:35.696Z,8.84
2022-12-23T09:23:39.757Z,8.82
2022-12-23T09:28:42.458Z,8.81
2022-12-23T09:33:47.582Z,8.90
2022-12-23T09:38:56.145Z,8.92
2022-12-23T09:44:12.728Z,8.99
2022-12-23T09:49:16.584Z,9.07
2022-12-23T09:54:22.498Z,9.05
2022-12-23T09:59:34.936Z,9.10
2022-12-23T10:04:48.990Z,9.07
2022-12-23T10:09:54.346Z,9.12
2022-12-23T10:14:58.710Z,9.06
2022-12-23T10:20:04.631Z,9.11
2022-12-23T10:25:15.360Z,9.11
2022-12-23T10:30:51.547Z,9.14
2022-12-23T10:35:49.051Z,9.13
2022-12-23T10:40:56.986Z,9.08
2022-12-23T10:46:03.466Z,9.04
2022-12-23T10:51:11.109Z,9.07
2022-12-23T10:56:16.441Z,9.11
2022-12-23T11:01:26.745Z,9.04
2022-12-23T11:06:36.798Z,9.07
2022-12-23T11:12:01.150Z,9.14
2022-12-23T11:17:04.472Z,9.16
2022-12-23T11:22:07.188Z,9.16
2022-12-23T11:27:15.986Z,9.18
2022-12-23T11:32:22.033Z,9.23
2022-12-23T11:37:29.107Z,9.23
2022-12-23T11:42:35.298Z,9.28
2022-12-23T11:47:41.005Z,9.35
2022-12-23T11:52:51.673Z,9.39
2022-12-23T11:57:56.565Z,9.39
2022-12-23T12:03:00.991Z,9.36
2022-12-23T12:08:06.865Z,9.43
2022-12-23T12:13:27.224Z,9.48
2022-12-23T12:18:30.655Z,9.46
2022-12-23T12:23:41.569Z,9.51
2022-12-23T12:28:47.466Z,9.44
2022-12-23T12:33:52.451Z,9.41
2022-12-23T12:38:56.321Z,9.37
2022-12-23T12:44:04.946Z,9.39
2022-12-23T12:49:14.958Z,9.40
2022-12-23T12:54:23.660Z,9.37
2022-12-23T12:59:29.218Z,9.33
2022-12-23T13:05:01.728Z,9.34
2022-12-23T13:10:08.688Z,9.30
2022-12-23T13:15:21.486Z,9.33
2022-12-23T13:20:30.655Z,9.30
2022-12-23T13:25:36.763Z,9.24
2022-12-23T13:30:48.423Z,9.19
2022-12-23T13:36:06.794Z,9.19
2022-12-23T13:41:17.605Z,9.22
2022-12-23T13:46:28.257Z,9.19
2022-12-23T13:51:36.724Z,9.19
2022-12-23T13:56:43.448Z,9.14
2022-12-23T14:01:49.744Z,9.13
2022-12-23T14:06:54.306Z,9.10
2022-12-23T14:12:02.669Z,9.07
2022-12-23T14:17:13.196Z,9.06
2022-12-23T14:22:45.213Z,9.04
2022-12-23T14:27:53.759Z,9.12
2022-12-23T14:32:59.414Z,9.05
2022-12-23T14:38:25.052Z,9.14
2022-12-23T14:43:47.731Z,9.19
2022-12-23T14:49:38.827Z,9.07
2022-12-23T14:54:55.279Z,9.05
2022-12-23T15:00:07.525Z,9.04
2022-12-23T15:05:11.843Z,9.00
2022-12-23T15:10:17.958Z,9.04
2022-12-23T15:15:22.494Z,9.02
2022-12-23T15:20:27.058Z,8.94
2022-12-23T15:25:31.695Z,8.95
2022-12-23T15:30:37.045Z,8.87
2022-12-23T15:35:41.636Z,8.83
2022-12-23T15:40:44.798Z,8.87
2022-12-23T15:45:47.914Z,8.83
2022-12-23T15:50:53.075Z,8.86
2022-12-23T15:55:56.074Z,8.87
2022-12-23T16:01:01.100Z,8.85
2022-12-23T16:06:10.006Z,8.84
2022-12-23T16:11:17.407Z,8.83
2022-12-23T16:16:21.669Z,8.80
2022-12-23T16:21:29.650Z,8.77
2022-12-23T16:26:32.564Z,8.72
2022-12-23T16:31:35.364Z,8.73
2022-12-23T16:36:39.717Z,8.77
2022-12-23T16:41:42.673Z,8.71
2022-12-23T16:46:48.261Z,8.65
2022-12-23T16:51:52.534Z,8.68
2022-12-23T16:56:55.365Z,8.59
2022-12-23T17:02:03.372Z,8.57
2022-12-23T17:07:10.541Z,8.64
2022-12-23T17:12:14.403Z,8.62
2022-12-23T17:17:17.120Z,8.64
2022-12-23T17:22:21.752Z,8.67
2022-12-23T17:27:25.279Z,8.67
2022-12-23T17:32:28.502Z,8.67
2022-12-23T17:37:32.697Z,8.73
2022-12-23T17:42:35.592Z,8.76
2022-12-23T17:47:38.412Z,8.83
2022-12-23T17:52:42.528Z,8.81
2022-12-23T17:57:45.606Z,8.82
2022-12-23T18:02:49.119Z,8.89
2022-12-23T18:07:53.991Z,8.96
2022-12-23T18:12:58.446Z,9.03
2022-12-23T18:18:01.321Z,9.18
2022-12-23T18:23:05.548Z,9.27
2022-12-23T18:28:10.569Z,9.36
2022-12-23T18:33:14.031Z,9.42
2022-12-23T18:38:18.806Z,9.52
2022-12-23T18:43:23.372Z,9.59
2022-12-23T18:48:26.110Z,9.71
2022-12-23T18:53:30.859Z,9.78
2022-12-23T18:58:33.787Z,9.92
2022-12-23T19:03:36.558Z,10.08
2022-12-23T19:08:41.322Z,10.03
2022-12-23T19:13:44.464Z,10.06
2022-12-23T19:18:48.061Z,10.05
2022-12-23T19:23:52.322Z,10.08
2022-12-23T19:28:55.100Z,10.20
2022-12-23T19:33:57.824Z,10.15
2022-12-23T19:39:01.959Z,10.12
2022-12-23T19:44:05.093Z,10.06
2022-12-23T19:49:07.814Z,10.08
2022-12-23T19:54:14.770Z,10.07
2022-12-23T19:59:17.643Z,10.14
2022-12-23T20:04:20.791Z,10.20
2022-12-23T20:09:24.938Z,10.26
2022-12-23T20:14:32.032Z,10.15
2022-12-23T20:19:42.076Z,10.13
2022-12-23T20:24:50.006Z,10.07
2022-12-23T20:29:52.761Z,10.03
2022-12-23T20:34:55.569Z,10.03
2022-12-23T20:39:59.888Z,10.03
2022-12-23T20:45:02.584Z,10.05
2022-12-23T20:50:07.556Z,9.97
2022-12-23T20:55:11.957Z,9.92
2022-12-23T21:00:15.661Z,10.00
2022-12-23T21:05:18.631Z,10.06
2022-12-23T21:10:22.732Z,10.07
2022-12-23T21:15:25.508Z,10.03
2022-12-23T21:20:28.755Z,9.94
2022-12-23T21:25:32.817Z,10.01
2022-12-23T21:30:35.635Z,10.06
2022-12-23T21:35:38.330Z,10.05
2022-12-23T21:40:42.455Z,10.03
2022-12-23T21:45:45.273Z,10.02
2022-12-23T21:50:48.100Z,10.01
2022-12-23T21:55:52.260Z,10.01
2022-12-23T22:00:55.063Z,10.03
2022-12-23T22:06:09.893Z,9.98
2022-12-23T22:11:15.687Z,9.96
2022-12-23T22:16:20.295Z,9.91
2022-12-23T22:21:24.524Z,9.86
2022-12-23T22:26:30.326Z,9.84
2022-12-23T22:31:36.659Z,9.83
2022-12-23T22:36:39.536Z,9.88
2022-12-23T22:41:43.692Z,9.85
2022-12-23T22:46:46.635Z,9.83
2022-12-23T22:51:49.680Z,9.80
2022-12-23T22:56:53.723Z,9.81
2022-12-23T23:01:56.545Z,9.85
2022-12-23T23:06:59.425Z,9.88
2022-12-23T23:12:03.711Z,9.91
2022-12-23T23:17:06.454Z,9.97
2022-12-23T23:22:09.245Z,9.92
2022-12-23T23:27:13.420Z,9.89
2022-12-23T23:32:16.166Z,9.89
2022-12-23T23:37:18.954Z,9.93
2022-12-23T23:42:23.025Z,9.84
2022-12-23T23:47:25.751Z,9.86
2022-12-23T23:52:28.875Z,9.83
2022-12-23T23:57:32.961Z,9.74
